createdAt,value
2017-08-03T00:00:11.746Z,93.20
2017-08-03T00:02:39.338Z,93.10
2017-08-03T00:05:06.840Z,92.90
2017-08-03T00:07:34.359Z,92.80
2017-08-03T00:10:02.026Z,92.80
2017-08-03T00:12:29.600Z,92.70
2017-08-03T00:14:57.178Z,92.70
2017-08-03T00:17:24.776Z,92.70
2017-08-03T00:19:52.267Z,92.60
2017-08-03T00:22:19.886Z,92.60
2017-08-03T00:24:47.508Z,92.70
2017-08-03T00:27:15.020Z,92.70
2017-08-03T00:29:43.356Z,92.90
2017-08-03T00:32:10.943Z,92.80
2017-08-03T00:34:38.533Z,92.90
2017-08-03T00:37:06.083Z,93.00
2017-08-03T00:39:34.618Z,93.30
2017-08-03T00:42:02.147Z,93.30
2017-08-03T00:44:29.734Z,93.40
2017-08-03T00:46:57.497Z,93.40
2017-08-03T00:49:25.093Z,93.50
2017-08-03T00:51:52.625Z,93.90
2017-08-03T00:54:20.235Z,94.10
2017-08-03T00:56:47.846Z,94.50
2017-08-03T00:59:15.426Z,94.00
2017-08-03T01:01:43.103Z,93.80
2017-08-03T01:04:11.483Z,93.30
2017-08-03T01:06:39.014Z,93.40
2017-08-03T01:09:06.619Z,93.30
2017-08-03T01:11:34.207Z,93.20
2017-08-03T01:14:01.682Z,93.10
2017-08-03T01:16:29.261Z,92.90
2017-08-03T01:18:56.807Z,92.80
2017-08-03T01:21:24.329Z,92.60
2017-08-03T01:23:52.694Z,92.40
2017-08-03T01:26:21.060Z,92.50
2017-08-03T01:28:49.356Z,92.50
2017-08-03T01:31:16.962Z,92.50
2017-08-03T01:33:44.425Z,92.40
2017-08-03T01:36:12.021Z,92.40
2017-08-03T01:38:39.574Z,92.40
2017-08-03T01:41:07.915Z,92.40
2017-08-03T01:43:35.490Z,92.30
2017-08-03T01:46:03.020Z,92.30
2017-08-03T01:48:30.584Z,92.30
2017-08-03T01:50:58.241Z,92.30
2017-08-03T01:53:25.830Z,92.20
2017-08-03T01:55:53.355Z,92.20
2017-08-03T01:58:20.929Z,92.10
2017-08-03T02:00:48.442Z,92.10
2017-08-03T02:03:15.975Z,92.00
2017-08-03T02:05:43.536Z,92.00
2017-08-03T02:08:11.101Z,92.00
2017-08-03T02:10:38.632Z,92.10
2017-08-03T02:13:06.204Z,92.10
2017-08-03T02:15:33.964Z,92.10
2017-08-03T02:18:01.524Z,92.00
2017-08-03T02:20:29.065Z,92.00
2017-08-03T02:22:56.753Z,92.00
2017-08-03T02:25:24.318Z,92.00
2017-08-03T02:27:51.838Z,92.00
2017-08-03T02:30:19.576Z,91.90
2017-08-03T02:32:47.169Z,91.90
2017-08-03T02:35:14.726Z,91.90
2017-08-03T02:37:42.395Z,91.90
2017-08-03T02:40:09.928Z,92.00
2017-08-03T02:42:37.461Z,92.10
2017-08-03T02:45:05.842Z,92.30
2017-08-03T02:47:33.477Z,92.30
2017-08-03T02:50:01.051Z,92.20
2017-08-03T02:52:28.802Z,92.30
2017-08-03T02:54:56.351Z,92.20
2017-08-03T02:57:23.901Z,92.10
2017-08-03T02:59:51.451Z,92.00
2017-08-03T03:02:19.025Z,92.00
2017-08-03T03:04:46.626Z,92.10
2017-08-03T03:07:14.243Z,92.10
2017-08-03T03:09:41.760Z,92.40
2017-08-03T03:12:09.304Z,92.30
2017-08-03T03:14:36.896Z,92.40
2017-08-03T03:17:04.460Z,92.60
2017-08-03T03:19:31.978Z,92.70
2017-08-03T03:21:59.619Z,92.80
2017-08-03T03:24:27.177Z,92.80
2017-08-03T03:26:54.746Z,92.90
2017-08-03T03:29:22.357Z,93.00
2017-08-03T03:31:49.882Z,93.00
2017-08-03T03:34:17.434Z,93.00
2017-08-03T03:36:45.101Z,93.10
2017-08-03T03:39:12.669Z,93.10
2017-08-03T03:41:40.210Z,93.00
2017-08-03T03:44:07.932Z,93.00
2017-08-03T03:46:35.486Z,93.00
2017-08-03T03:49:03.059Z,93.00
2017-08-03T03:51:30.653Z,93.00
2017-08-03T03:53:58.227Z,92.80
2017-08-03T03:56:25.802Z,92.60
2017-08-03T03:58:54.341Z,92.40
2017-08-03T04:01:21.905Z,92.10
2017-08-03T04:03:49.549Z,91.80
2017-08-03T04:06:17.164Z,91.70
2017-08-03T04:08:45.495Z,91.60
2017-08-03T04:11:13.051Z,91.30
2017-08-03T04:13:40.688Z,91.00
2017-08-03T04:16:08.234Z,90.50
2017-08-03T04:18:36.564Z,89.60
2017-08-03T04:21:04.149Z,89.60
2017-08-03T04:23:31.655Z,89.20
2017-08-03T04:25:59.233Z,89.00
2017-08-03T04:28:26.973Z,89.20
2017-08-03T04:30:54.554Z,89.20
2017-08-03T04:33:22.126Z,89.50
2017-08-03T04:35:49.708Z,89.60
2017-08-03T04:38:17.233Z,89.40
2017-08-03T04:40:44.781Z,89.40
2017-08-03T04:43:12.348Z,89.60
2017-08-03T04:45:39.876Z,89.30
2017-08-03T04:48:08.192Z,89.30
2017-08-03T04:50:35.923Z,89.30
2017-08-03T04:53:03.462Z,88.60
2017-08-03T04:55:30.955Z,88.30
2017-08-03T04:57:58.564Z,87.60
2017-08-03T05:00:26.163Z,86.70
2017-08-03T05:02:53.721Z,85.60
2017-08-03T05:05:21.384Z,85.00
2017-08-03T05:07:48.959Z,83.90
2017-08-03T05:10:16.486Z,82.90
2017-08-03T05:12:44.098Z,80.60
2017-08-03T05:15:11.673Z,79.30
2017-08-03T05:17:39.201Z,78.80
2017-08-03T05:20:06.766Z,78.10
2017-08-03T05:22:34.382Z,77.80
2017-08-03T05:25:01.929Z,77.50
2017-08-03T05:27:29.522Z,76.50
2017-08-03T05:29:57.087Z,76.10
2017-08-03T05:32:24.674Z,76.20
2017-08-03T05:34:52.283Z,76.70
2017-08-03T05:37:19.761Z,77.40
2017-08-03T05:39:47.350Z,77.50
2017-08-03T05:42:15.100Z,78.40
2017-08-03T05:44:42.643Z,78.10
2017-08-03T05:47:10.174Z,78.80
2017-08-03T05:49:37.809Z,78.00
2017-08-03T05:52:05.344Z,77.40
2017-08-03T05:54:32.918Z,77.30
2017-08-03T05:57:00.665Z,77.30
2017-08-03T05:59:28.194Z,76.30
2017-08-03T06:01:56.528Z,75.90
2017-08-03T06:04:24.297Z,75.90
2017-08-03T06:06:52.778Z,75.70
2017-08-03T06:09:20.287Z,75.50
2017-08-03T06:11:47.896Z,75.10
2017-08-03T06:14:15.492Z,73.60
2017-08-03T06:16:43.025Z,70.60
2017-08-03T06:19:10.656Z,65.50
2017-08-03T06:21:38.211Z,60.00
2017-08-03T06:24:05.802Z,59.50
2017-08-03T06:26:33.367Z,59.90
2017-08-03T06:29:00.932Z,59.60
2017-08-03T06:31:28.537Z,59.40
2017-08-03T06:33:56.874Z,58.20
2017-08-03T06:36:24.423Z,58.10
2017-08-03T06:38:51.988Z,55.40
2017-08-03T06:41:19.699Z,49.90
2017-08-03T06:43:47.282Z,46.10
2017-08-03T06:46:14.836Z,43.90
2017-08-03T06:48:42.785Z,43.90
2017-08-03T06:51:10.436Z,44.20
2017-08-03T06:53:38.268Z,44.60
2017-08-03T06:56:05.977Z,44.20
2017-08-03T06:58:34.199Z,43.20
2017-08-03T07:01:01.971Z,44.10
2017-08-03T07:03:29.815Z,44.00
2017-08-03T07:05:57.494Z,44.40
2017-08-03T07:08:25.213Z,45.10
2017-08-03T07:10:52.990Z,45.80
2017-08-03T07:13:20.800Z,45.60
2017-08-03T07:15:49.183Z,46.80
2017-08-03T07:18:17.241Z,45.70
2017-08-03T07:20:44.912Z,44.00
2017-08-03T07:23:12.518Z,43.10
2017-08-03T07:25:40.155Z,41.50
2017-08-03T07:28:07.752Z,40.20
2017-08-03T07:30:35.323Z,39.40
2017-08-03T07:33:02.933Z,38.60
2017-08-03T07:35:30.548Z,41.00
2017-08-03T07:37:58.106Z,43.90
2017-08-03T07:40:25.703Z,45.80
2017-08-03T07:42:53.283Z,46.50
2017-08-03T07:45:20.813Z,46.20
2017-08-03T07:47:48.430Z,44.00
2017-08-03T07:50:16.028Z,41.90
2017-08-03T07:52:44.189Z,40.80
2017-08-03T07:55:12.163Z,39.90
2017-08-03T07:57:39.759Z,38.30
2017-08-03T08:00:07.320Z,38.00
2017-08-03T08:02:35.074Z,39.10
2017-08-03T08:05:02.674Z,40.20
2017-08-03T08:07:30.329Z,41.30
2017-08-03T08:09:57.951Z,41.70
2017-08-03T08:12:25.477Z,44.90
2017-08-03T08:14:53.195Z,48.20
2017-08-03T08:17:21.326Z,48.60
2017-08-03T08:19:48.896Z,50.80
2017-08-03T08:22:16.440Z,49.80
2017-08-03T08:24:45.061Z,51.10
2017-08-03T08:27:13.434Z,52.70
2017-08-03T08:29:40.990Z,51.30
2017-08-03T08:32:08.769Z,53.70
2017-08-03T08:34:36.352Z,55.00
2017-08-03T08:37:03.960Z,53.40
2017-08-03T08:39:31.601Z,54.60
2017-08-03T08:41:59.718Z,55.30
2017-08-03T08:44:28.347Z,54.70
2017-08-03T08:46:56.349Z,54.60
2017-08-03T08:49:24.044Z,55.70
2017-08-03T08:51:51.575Z,54.60
2017-08-03T08:54:19.345Z,56.60
2017-08-03T08:56:46.943Z,58.50
2017-08-03T08:59:15.282Z,60.30
2017-08-03T09:01:43.084Z,59.70
2017-08-03T09:04:10.710Z,60.30
2017-08-03T09:06:38.303Z,61.50
2017-08-03T09:09:06.748Z,62.30
2017-08-03T09:11:34.333Z,62.30
2017-08-03T09:14:01.955Z,62.20
2017-08-03T09:16:29.614Z,63.00
2017-08-03T09:18:57.221Z,64.00
2017-08-03T09:21:24.842Z,64.40
2017-08-03T09:23:52.461Z,64.60
2017-08-03T09:26:20.070Z,65.10
2017-08-03T09:28:47.631Z,65.00
2017-08-03T09:31:15.338Z,65.40
2017-08-03T09:33:42.920Z,65.70
2017-08-03T09:36:10.485Z,67.70
2017-08-03T09:38:38.296Z,68.10
2017-08-03T09:41:05.872Z,69.40
2017-08-03T09:43:33.568Z,69.50
2017-08-03T09:46:02.237Z,70.50
2017-08-03T09:48:30.510Z,70.10
2017-08-03T09:50:58.067Z,70.40
2017-08-03T09:53:26.484Z,67.70
2017-08-03T09:55:54.040Z,67.80
2017-08-03T09:58:21.606Z,67.10
2017-08-03T10:00:49.470Z,67.70
2017-08-03T10:03:17.252Z,67.30
2017-08-03T10:05:44.852Z,68.70
2017-08-03T10:08:12.572Z,69.30
2017-08-03T10:10:40.341Z,69.50
2017-08-03T10:13:09.345Z,72.10
2017-08-03T10:15:37.003Z,73.00
2017-08-03T10:18:04.626Z,73.60
2017-08-03T10:20:32.438Z,74.40
2017-08-03T10:23:00.158Z,75.20
2017-08-03T10:25:27.827Z,77.00
2017-08-03T10:27:58.391Z,77.40
2017-08-03T10:30:26.058Z,76.50
2017-08-03T10:32:53.671Z,76.30
2017-08-03T10:35:21.245Z,76.30
2017-08-03T10:37:48.971Z,77.40
2017-08-03T10:40:17.321Z,78.30
2017-08-03T10:42:44.903Z,78.10
2017-08-03T10:45:12.459Z,77.30
2017-08-03T10:47:40.065Z,77.70
2017-08-03T10:50:07.657Z,77.10
2017-08-03T10:52:35.270Z,76.10
2017-08-03T10:55:02.995Z,77.00
2017-08-03T10:57:30.741Z,75.10
2017-08-03T10:59:58.583Z,75.30
2017-08-03T11:02:26.804Z,74.30
2017-08-03T11:04:54.367Z,75.80
2017-08-03T11:07:21.924Z,74.30
2017-08-03T11:09:49.482Z,75.00
2017-08-03T11:12:17.150Z,75.30
2017-08-03T11:14:44.850Z,75.50
2017-08-03T11:17:12.378Z,75.30
2017-08-03T11:19:39.948Z,75.80
2017-08-03T11:22:07.535Z,76.40
2017-08-03T11:24:35.104Z,77.00
2017-08-03T11:27:02.667Z,74.70
2017-08-03T11:29:30.255Z,74.90
2017-08-03T11:31:57.793Z,75.50
2017-08-03T11:34:25.385Z,77.10
2017-08-03T11:36:52.998Z,77.70
2017-08-03T11:39:20.579Z,78.80
2017-08-03T11:41:48.291Z,79.60
2017-08-03T11:44:15.886Z,80.20
2017-08-03T11:46:43.489Z,80.90
2017-08-03T11:49:12.260Z,81.40
2017-08-03T11:51:40.771Z,80.30
2017-08-03T11:54:08.457Z,84.20
2017-08-03T11:56:36.157Z,85.30
2017-08-03T11:59:04.645Z,85.10
2017-08-03T12:01:32.518Z,85.00
2017-08-03T12:04:00.353Z,84.50
2017-08-03T12:06:29.008Z,84.70
2017-08-03T12:08:57.400Z,83.30
2017-08-03T12:11:26.738Z,84.00
2017-08-03T12:13:56.599Z,83.40
2017-08-03T12:16:24.251Z,80.50
2017-08-03T12:18:51.932Z,80.20
2017-08-03T12:21:19.602Z,80.50
2017-08-03T12:23:47.181Z,79.50
2017-08-03T12:26:14.950Z,79.40
2017-08-03T12:28:42.523Z,77.30
2017-08-03T12:31:10.061Z,78.80
2017-08-03T12:33:37.644Z,77.60
2017-08-03T12:36:05.195Z,78.50
2017-08-03T12:38:32.898Z,76.60
2017-08-03T12:41:00.595Z,75.30
2017-08-03T12:43:28.155Z,74.50
2017-08-03T12:45:55.749Z,73.40
2017-08-03T12:48:23.328Z,72.10
2017-08-03T12:50:50.969Z,72.20
2017-08-03T12:53:18.500Z,71.70
2017-08-03T12:55:46.063Z,73.10
2017-08-03T12:58:13.868Z,71.70
2017-08-03T13:00:41.450Z,71.90
2017-08-03T13:03:09.918Z,71.70
2017-08-03T13:05:37.540Z,71.20
2017-08-03T13:08:05.120Z,68.10
2017-08-03T13:10:32.680Z,67.00
2017-08-03T13:13:00.285Z,67.50
2017-08-03T13:15:28.044Z,64.30
2017-08-03T13:17:55.637Z,64.30
2017-08-03T13:20:23.268Z,63.90
2017-08-03T13:22:50.809Z,63.30
2017-08-03T13:25:18.391Z,64.40
2017-08-03T13:27:45.980Z,64.10
2017-08-03T13:30:13.511Z,63.50
2017-08-03T13:32:41.038Z,63.10
2017-08-03T13:35:08.793Z,62.50
2017-08-03T13:37:36.330Z,61.70
2017-08-03T13:40:03.867Z,62.00
2017-08-03T13:42:32.247Z,63.00
2017-08-03T13:45:00.557Z,63.80
2017-08-03T13:47:28.130Z,63.80
2017-08-03T13:49:55.721Z,64.40
2017-08-03T13:52:23.282Z,64.30
2017-08-03T13:54:51.166Z,65.00
2017-08-03T13:57:19.678Z,65.90
2017-08-03T13:59:47.402Z,65.50
2017-08-03T14:02:14.998Z,65.70
2017-08-03T14:04:42.578Z,66.80
2017-08-03T14:21:36.391Z,65.80
2017-08-03T14:24:03.974Z,64.60
2017-08-03T14:26:31.540Z,65.20
2017-08-03T14:31:51.913Z,63.40
2017-08-03T14:34:19.482Z,62.50
2017-08-03T14:36:47.070Z,62.40
2017-08-03T14:39:14.839Z,64.10
2017-08-03T14:41:42.405Z,65.00
2017-08-03T14:44:09.961Z,64.70
2017-08-03T14:46:37.566Z,64.10
2017-08-03T14:49:05.105Z,64.70
2017-08-03T14:51:32.689Z,65.20
2017-08-03T14:54:00.303Z,65.70
2017-08-03T14:56:27.878Z,66.00
2017-08-03T14:58:55.453Z,65.90
2017-08-03T15:01:23.063Z,65.80
2017-08-03T15:06:43.557Z,65.40
2017-08-03T15:09:11.855Z,64.60
2017-08-03T15:11:39.441Z,64.80
2017-08-03T15:14:07.974Z,65.40
2017-08-03T15:16:35.538Z,66.10
2017-08-03T15:19:03.111Z,66.30
2017-08-03T15:21:30.728Z,66.30
2017-08-03T15:23:58.275Z,65.70
2017-08-03T15:26:25.874Z,66.80
2017-08-03T15:28:53.516Z,66.30
2017-08-03T15:31:21.071Z,67.00
2017-08-03T15:33:48.617Z,66.40
2017-08-03T15:36:16.193Z,65.70
2017-08-03T15:38:43.716Z,66.90
2017-08-03T15:41:11.284Z,67.40
2017-08-03T15:43:38.917Z,68.30
2017-08-03T15:46:06.482Z,68.30
2017-08-03T15:48:34.012Z,68.70
2017-08-03T15:51:02.575Z,69.10
2017-08-03T15:53:30.176Z,69.10
2017-08-03T15:55:58.518Z,66.30
2017-08-03T15:58:26.136Z,66.50
2017-08-03T16:00:53.702Z,67.10
2017-08-03T16:03:21.170Z,67.70
2017-08-03T16:05:48.785Z,67.90
2017-08-03T16:08:16.378Z,68.40
2017-08-03T16:10:43.946Z,67.80
2017-08-03T16:13:11.533Z,67.80
2017-08-03T16:15:39.109Z,69.40
2017-08-03T16:18:06.853Z,68.40
2017-08-03T16:20:34.402Z,68.80
2017-08-03T16:23:01.932Z,68.80
2017-08-03T16:25:29.466Z,69.40
2017-08-03T16:27:57.243Z,69.40
2017-08-03T16:30:24.775Z,68.60
2017-08-03T16:32:52.355Z,69.50
2017-08-03T16:35:19.945Z,70.20
2017-08-03T16:37:47.533Z,69.30
2017-08-03T16:40:15.094Z,70.10
2017-08-03T16:42:43.507Z,69.90
2017-08-03T16:45:11.085Z,70.70
2017-08-03T16:47:39.392Z,71.10
2017-08-03T16:50:07.045Z,71.10
2017-08-03T16:55:29.409Z,71.10
2017-08-03T16:57:56.993Z,72.20
2017-08-03T17:00:24.593Z,72.50
2017-08-03T17:02:52.371Z,72.30
2017-08-03T17:05:19.978Z,72.30
2017-08-03T17:07:47.545Z,72.60
2017-08-03T17:10:15.694Z,72.80
2017-08-03T17:12:43.291Z,73.20
2017-08-03T17:15:10.865Z,73.80
2017-08-03T17:17:38.494Z,74.00
2017-08-03T17:20:06.075Z,75.00
2017-08-03T17:22:35.387Z,74.40
2017-08-03T17:25:02.988Z,74.90
2017-08-03T17:27:31.353Z,75.30
2017-08-03T17:29:59.713Z,75.90
2017-08-03T17:32:28.241Z,76.00
2017-08-03T17:34:55.816Z,76.20
2017-08-03T17:37:23.392Z,76.30
2017-08-03T17:39:51.146Z,76.70
2017-08-03T17:42:18.796Z,76.70
2017-08-03T17:44:46.365Z,76.80
2017-08-03T17:47:14.765Z,77.60
2017-08-03T17:49:42.402Z,78.20
2017-08-03T17:52:09.975Z,77.40
2017-08-03T17:54:37.624Z,77.80
2017-08-03T17:57:05.273Z,77.60
2017-08-03T17:59:32.904Z,77.70
2017-08-03T18:02:01.479Z,78.30
2017-08-03T18:04:29.055Z,78.30
2017-08-03T18:06:57.371Z,78.30
2017-08-03T18:09:24.926Z,78.30
2017-08-03T18:11:52.745Z,77.90
2017-08-03T18:14:20.311Z,78.40
2017-08-03T18:16:48.043Z,78.80
2017-08-03T18:19:15.613Z,78.90
2017-08-03T18:21:43.139Z,79.10
2017-08-03T18:24:10.760Z,79.40
2017-08-03T18:26:38.324Z,79.50
2017-08-03T18:29:06.659Z,80.20
2017-08-03T18:31:34.272Z,80.20
2017-08-03T18:34:01.910Z,80.20
2017-08-03T18:36:29.618Z,80.40
2017-08-03T18:38:57.463Z,80.60
2017-08-03T18:41:25.833Z,81.40
2017-08-03T18:43:54.178Z,82.10
2017-08-03T18:46:21.971Z,82.00
2017-08-03T18:48:50.348Z,82.90
2017-08-03T18:51:18.667Z,82.80
2017-08-03T18:53:46.256Z,82.60
2017-08-03T18:56:13.942Z,83.20
2017-08-03T18:58:42.332Z,84.20
2017-08-03T19:01:10.809Z,84.70
2017-08-03T19:03:38.392Z,84.70
2017-08-03T19:06:05.993Z,85.00
2017-08-03T19:08:33.591Z,85.60
2017-08-03T19:11:01.178Z,85.80
2017-08-03T19:13:29.610Z,86.10
2017-08-03T19:15:57.210Z,87.00
2017-08-03T19:18:24.802Z,86.50
2017-08-03T19:20:52.364Z,87.10
2017-08-03T19:23:20.179Z,87.50
2017-08-03T19:25:47.824Z,87.50
2017-08-03T19:28:15.438Z,87.70
2017-08-03T19:30:43.080Z,87.80
2017-08-03T19:33:11.563Z,88.10
2017-08-03T19:35:39.152Z,88.10
2017-08-03T19:38:06.938Z,88.70
2017-08-03T19:40:34.544Z,88.60
2017-08-03T19:43:02.178Z,88.50
2017-08-03T19:45:29.809Z,88.90
2017-08-03T19:47:57.385Z,89.20
2017-08-03T19:50:25.596Z,89.20
2017-08-03T19:52:53.231Z,89.60
2017-08-03T19:55:21.001Z,89.60
2017-08-03T19:57:48.564Z,89.90
2017-08-03T20:00:16.179Z,90.20
2017-08-03T20:02:43.851Z,90.00
2017-08-03T20:05:11.407Z,90.00
2017-08-03T20:07:52.080Z,90.00
2017-08-03T20:10:23.559Z,90.00
2017-08-03T20:12:51.167Z,90.00
2017-08-03T20:15:19.287Z,89.90
2017-08-03T20:17:46.849Z,89.80
2017-08-03T20:20:15.474Z,89.90
2017-08-03T20:22:43.091Z,89.70
2017-08-03T20:25:10.666Z,89.40
2017-08-03T20:27:38.222Z,88.80
2017-08-03T20:30:05.831Z,88.60
2017-08-03T20:32:33.410Z,88.80
2017-08-03T20:35:01.985Z,88.80
2017-08-03T20:37:29.778Z,89.10
2017-08-03T20:39:57.379Z,89.10
2017-08-03T20:42:25.008Z,89.00
2017-08-03T20:44:52.839Z,89.10
2017-08-03T20:47:20.403Z,89.00
2017-08-03T20:49:47.942Z,89.00
2017-08-03T20:52:15.537Z,89.30
2017-08-03T20:54:43.122Z,89.40
2017-08-03T20:57:10.738Z,89.60
2017-08-03T20:59:38.406Z,89.70
2017-08-03T21:02:05.990Z,89.90
2017-08-03T21:04:33.592Z,89.50
2017-08-03T21:07:01.400Z,89.40
2017-08-03T21:09:28.983Z,89.50
2017-08-03T21:11:56.570Z,89.60
2017-08-03T21:14:24.183Z,89.20
2017-08-03T21:16:51.742Z,89.30
2017-08-03T21:19:19.338Z,89.40
2017-08-03T21:21:46.928Z,89.60
2017-08-03T21:24:14.462Z,89.70
2017-08-03T21:26:42.035Z,89.90
2017-08-03T21:29:09.682Z,90.00
2017-08-03T21:31:37.226Z,89.80
2017-08-03T21:34:04.796Z,89.90
2017-08-03T21:36:32.486Z,90.00
2017-08-03T21:39:00.077Z,90.10
2017-08-03T21:41:27.643Z,90.20
2017-08-03T21:43:55.221Z,90.30
2017-08-03T21:46:22.932Z,90.40
2017-08-03T21:48:50.754Z,90.40
2017-08-03T21:51:19.282Z,90.50
2017-08-03T21:53:46.805Z,90.40
2017-08-03T21:56:14.466Z,90.50
2017-08-03T21:58:42.021Z,90.50
2017-08-03T22:01:16.338Z,90.60
2017-08-03T22:03:44.793Z,90.60
2017-08-03T22:06:12.457Z,90.70
2017-08-03T22:08:40.374Z,90.70
2017-08-03T22:11:08.013Z,90.70
2017-08-03T22:13:35.556Z,90.80
2017-08-03T22:16:03.111Z,90.70
2017-08-03T22:18:31.490Z,90.70
2017-08-03T22:20:59.076Z,90.60
2017-08-03T22:23:26.663Z,90.60
2017-08-03T22:25:54.256Z,90.80
2017-08-03T22:28:21.901Z,90.70
2017-08-03T22:30:49.468Z,90.80
2017-08-03T22:33:17.079Z,90.80
2017-08-03T22:35:44.630Z,91.00
2017-08-03T22:38:12.181Z,91.10
2017-08-03T22:40:39.745Z,91.20
2017-08-03T22:43:07.310Z,91.30
2017-08-03T22:45:34.924Z,91.40
2017-08-03T22:48:02.493Z,91.40
2017-08-03T22:50:30.086Z,91.60
2017-08-03T22:52:57.647Z,91.70
2017-08-03T22:55:25.394Z,91.80
2017-08-03T22:57:53.021Z,92.00
2017-08-03T23:00:20.548Z,92.10
2017-08-03T23:02:48.154Z,92.20
2017-08-03T23:05:15.679Z,92.20
2017-08-03T23:07:43.997Z,92.20
2017-08-03T23:10:11.552Z,92.20
2017-08-03T23:12:39.161Z,92.30
2017-08-03T23:15:06.765Z,92.30
2017-08-03T23:17:34.402Z,92.40
2017-08-03T23:20:02.811Z,92.50
2017-08-03T23:22:30.332Z,92.50
2017-08-03T23:24:57.938Z,92.40
2017-08-03T23:27:25.493Z,92.50
2017-08-03T23:29:53.043Z,92.50
2017-08-03T23:32:20.743Z,92.50
2017-08-03T23:34:50.762Z,92.50
2017-08-03T23:37:18.380Z,92.50
2017-08-03T23:39:45.987Z,92.40
2017-08-03T23:42:13.624Z,92.20
2017-08-03T23:44:41.194Z,92.00
2017-08-03T23:47:08.790Z,91.70
2017-08-03T23:49:36.347Z,91.50
2017-08-03T23:52:03.876Z,91.10
2017-08-03T23:54:31.388Z,91.10
2017-08-03T23:56:58.978Z,91.00
2017-08-03T23:59:26.531Z,90.50
